createdAt,value
2023-03-20T00:01:03.279Z,21.70
2023-03-20T00:06:05.608Z,23.10
2023-03-20T00:11:17.230Z,23.90
2023-03-20T00:16:20.532Z,21.50
2023-03-20T00:21:22.343Z,22.67
2023-03-20T00:26:26.576Z,25.17
2023-03-20T00:31:30.410Z,30.27
2023-03-20T00:36:32.261Z,27.90
2023-03-20T00:41:37.862Z,28.33
2023-03-20T00:46:41.447Z,31.97
2023-03-20T00:51:43.199Z,29.50
2023-03-20T00:56:45.754Z,33.73
2023-03-20T01:01:48.936Z,29.40
2023-03-20T01:06:50.831Z,33.77
2023-03-20T01:11:54.095Z,32.40
2023-03-20T01:16:57.234Z,34.97
2023-03-20T01:21:59.123Z,31.60
2023-03-20T01:27:04.054Z,32.17
2023-03-20T01:32:09.638Z,29.03
2023-03-20T01:37:12.437Z,36.67
2023-03-20T01:42:14.289Z,32.00
2023-03-20T01:47:19.869Z,38.73
2023-03-20T01:52:22.026Z,40.47
2023-03-20T01:57:24.346Z,43.07
2023-03-20T02:02:29.439Z,41.87
2023-03-20T02:07:31.938Z,43.70
2023-03-20T02:12:38.550Z,45.73
2023-03-20T02:17:43.544Z,52.23
2023-03-20T02:23:21.120Z,44.37
2023-03-20T02:28:54.216Z,52.50
2023-03-20T02:34:19.309Z,49.23
2023-03-20T02:39:32.376Z,45.57
2023-03-20T02:44:36.842Z,42.87
2023-03-20T02:49:49.037Z,49.90
2023-03-20T02:54:55.339Z,50.47
2023-03-20T03:00:00.109Z,51.07
2023-03-20T03:05:03.546Z,55.43
2023-03-20T03:10:08.562Z,60.30
2023-03-20T03:15:13.583Z,60.50
2023-03-20T03:20:19.870Z,58.67
2023-03-20T03:25:24.186Z,59.70
2023-03-20T03:30:27.093Z,66.33
2023-03-20T03:35:31.123Z,58.73
2023-03-20T03:40:35.589Z,63.63
2023-03-20T03:45:38.694Z,60.63
2023-03-20T03:50:46.382Z,64.70
2023-03-20T03:55:50.814Z,67.40
2023-03-20T04:00:52.962Z,67.97
2023-03-20T04:05:54.896Z,62.53
2023-03-20T04:10:57.913Z,64.03
2023-03-20T04:15:59.626Z,62.77
2023-03-20T04:21:03.252Z,63.43
2023-03-20T04:26:06.903Z,57.53
2023-03-20T04:31:10.269Z,67.30
2023-03-20T04:36:21.654Z,59.07
2023-03-20T04:41:26.498Z,65.47
2023-03-20T04:46:30.817Z,54.70
2023-03-20T04:51:33.275Z,53.83
2023-03-20T04:56:36.479Z,48.60
2023-03-20T05:01:51.224Z,49.37
2023-03-20T05:06:53.132Z,46.00
2023-03-20T05:11:59.019Z,50.63
2023-03-20T05:17:36.353Z,42.90
2023-03-20T05:22:56.447Z,42.10
2023-03-20T05:28:18.224Z,40.93
2023-03-20T05:33:28.017Z,39.90
2023-03-20T05:38:43.426Z,41.83
2023-03-20T05:43:57.135Z,35.50
2023-03-20T05:49:17.383Z,34.07
2023-03-20T05:54:37.858Z,32.17
2023-03-20T05:59:59.416Z,32.60
2023-03-20T06:05:19.587Z,29.70
2023-03-20T06:10:27.526Z,29.00
2023-03-20T06:15:30.689Z,33.00
2023-03-20T06:20:41.863Z,32.67
2023-03-20T06:25:44.104Z,30.50
2023-03-20T06:30:47.724Z,31.37
2023-03-20T06:35:54.389Z,34.00
2023-03-20T06:40:57.425Z,36.40
2023-03-20T06:46:00.484Z,36.50
2023-03-20T06:51:04.801Z,31.70
2023-03-20T06:56:11.888Z,36.03
2023-03-20T07:01:17.772Z,35.90
2023-03-20T07:06:19.667Z,36.90
2023-03-20T07:11:22.385Z,35.87
2023-03-20T07:16:28.603Z,39.33
2023-03-20T07:21:30.622Z,43.77
2023-03-20T07:26:32.850Z,37.70
2023-03-20T07:31:36.399Z,41.40
2023-03-20T07:36:44.804Z,45.50
2023-03-20T07:41:50.674Z,45.00
2023-03-20T07:47:06.021Z,47.23
2023-03-20T07:52:07.847Z,46.90
2023-03-20T07:57:09.696Z,46.90
2023-03-20T08:02:15.277Z,42.13
2023-03-20T08:07:16.926Z,42.07
2023-03-20T08:12:18.803Z,38.13
2023-03-20T08:17:22.119Z,41.90
2023-03-20T08:22:23.884Z,38.60
2023-03-20T08:27:25.902Z,39.20
2023-03-20T08:32:29.002Z,36.53
2023-03-20T08:37:30.682Z,35.87
2023-03-20T08:42:33.046Z,36.83
2023-03-20T08:47:36.141Z,28.43
2023-03-20T08:52:37.806Z,26.53
2023-03-20T08:57:39.436Z,25.63
2023-03-20T09:02:42.542Z,25.83
2023-03-20T09:07:44.299Z,29.30
2023-03-20T09:12:46.061Z,28.47
2023-03-20T09:17:49.045Z,25.67
2023-03-20T09:22:50.765Z,25.60
2023-03-20T09:27:55.149Z,28.80
2023-03-20T09:32:58.213Z,29.20
2023-03-20T09:37:59.935Z,29.10
2023-03-20T09:43:05.350Z,27.10
2023-03-20T09:48:11.582Z,27.63
2023-03-20T09:53:15.445Z,33.77
2023-03-20T09:58:20.607Z,38.43
2023-03-20T10:03:26.941Z,25.90
2023-03-20T10:08:29.607Z,28.33
2023-03-20T10:13:52.218Z,24.17
2023-03-20T10:18:59.172Z,19.37
2023-03-20T10:24:03.251Z,17.03
2023-03-20T10:29:06.713Z,14.50
2023-03-20T10:34:17.662Z,19.10
2023-03-20T10:39:22.120Z,19.70
2023-03-20T10:44:27.378Z,23.30
2023-03-20T10:49:34.503Z,22.60
2023-03-20T10:54:38.932Z,24.60
2023-03-20T10:59:42.096Z,22.63
2023-03-20T11:04:45.165Z,25.33
2023-03-20T11:09:46.838Z,24.30
2023-03-20T11:14:48.512Z,22.73
2023-03-20T11:19:51.462Z,22.40
2023-03-20T11:24:54.123Z,22.03
2023-03-20T11:29:56.014Z,20.57
2023-03-20T11:35:18.654Z,18.00
2023-03-20T11:40:22.782Z,17.53
2023-03-20T11:45:25.562Z,17.90
2023-03-20T11:50:31.348Z,22.63
2023-03-20T11:55:33.481Z,18.10
2023-03-20T12:00:36.904Z,18.73
2023-03-20T12:05:40.094Z,20.70
2023-03-20T12:10:42.844Z,15.10
2023-03-20T12:15:45.957Z,14.23
2023-03-20T12:20:54.053Z,15.13
2023-03-20T12:25:57.331Z,15.23
2023-03-20T12:31:04.729Z,15.03
2023-03-20T12:36:11.409Z,10.67
2023-03-20T12:41:15.266Z,13.77
2023-03-20T12:46:23.471Z,11.57
2023-03-20T12:51:31.828Z,17.80
2023-03-20T12:56:46.263Z,12.20
2023-03-20T13:01:52.879Z,12.53
2023-03-20T13:06:56.782Z,9.57
2023-03-20T13:12:00.511Z,10.30
2023-03-20T13:17:04.496Z,9.17
2023-03-20T13:22:08.728Z,10.33
2023-03-20T13:27:23.689Z,13.07
2023-03-20T13:32:31.214Z,10.37
2023-03-20T13:37:36.033Z,11.10
2023-03-20T13:42:39.318Z,9.47
2023-03-20T13:47:41.045Z,10.33
2023-03-20T13:52:46.268Z,9.40
2023-03-20T13:58:03.701Z,10.60
2023-03-20T14:03:15.335Z,9.70
2023-03-20T14:08:23.014Z,10.13
2023-03-20T14:13:27.459Z,8.40
2023-03-20T14:18:30.122Z,10.60
2023-03-20T14:23:35.534Z,10.13
2023-03-20T14:28:53.651Z,9.50
2023-03-20T14:34:09.463Z,11.27
2023-03-20T14:39:15.585Z,16.13
2023-03-20T14:44:24.148Z,10.40
2023-03-20T14:49:46.440Z,9.90
2023-03-20T14:54:53.891Z,11.60
2023-03-20T14:59:55.667Z,8.33
2023-03-20T15:04:57.663Z,8.20
2023-03-20T15:10:02.857Z,11.77
2023-03-20T15:15:05.706Z,8.63
2023-03-20T15:20:12.792Z,10.23
2023-03-20T15:25:18.492Z,8.13
2023-03-20T15:30:21.113Z,8.50
2023-03-20T15:35:23.611Z,10.37
2023-03-20T15:40:37.087Z,9.50
2023-03-20T15:45:45.624Z,8.23
2023-03-20T15:50:50.460Z,7.67
2023-03-20T15:56:16.933Z,11.90
2023-03-20T16:01:20.746Z,14.40
2023-03-20T16:06:22.925Z,8.87
2023-03-20T16:11:33.569Z,10.00
2023-03-20T16:16:37.475Z,7.20
2023-03-20T16:21:40.350Z,12.20
2023-03-20T16:26:44.862Z,7.93
2023-03-20T16:31:52.981Z,5.67
2023-03-20T16:36:57.404Z,10.77
2023-03-20T16:42:11.693Z,10.07
2023-03-20T16:47:17.595Z,8.27
2023-03-20T16:52:22.347Z,8.00
2023-03-20T16:57:25.807Z,7.30
2023-03-20T17:02:29.617Z,8.03
2023-03-20T17:07:31.316Z,9.10
2023-03-20T17:12:36.578Z,12.37
2023-03-20T17:17:38.366Z,11.27
2023-03-20T17:22:40.142Z,6.50
2023-03-20T17:27:44.000Z,18.57
2023-03-20T17:32:46.312Z,10.10
2023-03-20T17:37:48.822Z,7.90
2023-03-20T17:42:52.165Z,8.93
2023-03-20T17:47:54.136Z,8.83
2023-03-20T17:52:55.867Z,7.83
2023-03-20T17:57:58.879Z,5.37
2023-03-20T18:03:00.546Z,12.53
2023-03-20T18:08:02.684Z,16.13
2023-03-20T18:13:05.752Z,6.80
2023-03-20T18:18:08.955Z,6.97
2023-03-20T18:23:10.853Z,12.47
2023-03-20T18:28:22.693Z,10.00
2023-03-20T18:33:27.537Z,13.33
2023-03-20T18:38:30.602Z,10.80
2023-03-20T18:43:33.795Z,10.63
2023-03-20T18:48:35.684Z,12.77
2023-03-20T18:53:38.031Z,12.23
2023-03-20T18:58:41.347Z,12.83
2023-03-20T19:03:43.344Z,16.00
2023-03-20T19:08:45.359Z,85.87
2023-03-20T19:13:50.742Z,17.97
2023-03-20T19:18:53.043Z,12.60
2023-03-20T19:23:56.869Z,33.40
2023-03-20T19:29:01.351Z,16.03
2023-03-20T19:34:03.364Z,18.13
2023-03-20T19:39:06.429Z,19.50
2023-03-20T19:44:09.610Z,16.77
2023-03-20T19:49:17.948Z,15.17
2023-03-20T19:54:19.905Z,17.87
2023-03-20T19:59:23.353Z,15.90
2023-03-20T20:04:25.064Z,12.87
2023-03-20T20:09:28.556Z,15.23
2023-03-20T20:14:35.134Z,17.63
2023-03-20T20:19:37.062Z,13.27
2023-03-20T20:24:39.242Z,19.97
2023-03-20T20:29:42.487Z,18.67
2023-03-20T20:40:08.726Z,16.13
2023-03-20T20:45:12.370Z,15.80
2023-03-20T20:50:14.934Z,21.03
2023-03-20T20:55:36.691Z,17.50
2023-03-20T21:00:51.243Z,17.10
2023-03-20T21:05:53.556Z,13.77
2023-03-20T21:10:55.275Z,14.20
2023-03-20T21:15:58.948Z,19.10
2023-03-20T21:21:04.659Z,18.37
2023-03-20T21:26:07.283Z,19.33
2023-03-20T21:31:24.567Z,18.80
2023-03-20T21:36:28.444Z,17.90
2023-03-20T21:41:30.194Z,17.87
2023-03-20T21:58:02.473Z,17.83
2023-03-20T22:02:43.717Z,22.70
2023-03-20T22:08:46.876Z,21.77
2023-03-20T22:19:34.279Z,22.17
2023-03-20T22:24:44.868Z,25.73
2023-03-20T22:30:00.611Z,19.97
2023-03-20T22:35:30.900Z,24.27
2023-03-20T22:50:28.970Z,30.40
2023-03-20T22:55:30.646Z,37.50
2023-03-20T23:00:32.341Z,32.60
2023-03-20T23:05:37.384Z,37.50
2023-03-20T23:10:58.620Z,35.70
2023-03-20T23:16:00.315Z,36.10
2023-03-20T23:21:03.586Z,39.17
2023-03-20T23:26:06.120Z,43.10
2023-03-20T23:31:11.209Z,45.10
2023-03-20T23:36:28.850Z,48.90
2023-03-20T23:42:02.435Z,53.03
2023-03-20T23:46:59.753Z,43.47
2023-03-20T23:52:04.379Z,44.53
2023-03-20T23:57:06.270Z,45.00
